createdAt,value
2023-05-03T00:00:15.890Z,98.93
2023-05-03T00:01:15.881Z,99.18
2023-05-03T00:02:15.932Z,99.08
2023-05-03T00:03:15.906Z,98.87
2023-05-03T00:04:15.892Z,98.97
2023-05-03T00:05:15.901Z,99.08
2023-05-03T00:06:15.894Z,99.08
2023-05-03T00:07:15.839Z,99.08
2023-05-03T00:08:15.840Z,99.08
2023-05-03T00:09:15.841Z,99.18
2023-05-03T00:10:15.875Z,99.08
2023-05-03T00:11:15.817Z,99.60
2023-05-03T00:12:15.800Z,99.50
2023-05-03T00:13:15.791Z,99.60
2023-05-03T00:14:15.811Z,99.99
2023-05-03T00:15:15.778Z,99.99
2023-05-03T00:16:15.780Z,99.99
2023-05-03T00:17:15.805Z,99.99
2023-05-03T00:18:15.756Z,99.18
2023-05-03T00:19:30.375Z,99.18
2023-05-03T00:20:17.740Z,99.40
2023-05-03T00:21:15.732Z,99.60
2023-05-03T00:22:15.726Z,99.18
2023-05-03T00:23:15.763Z,99.40
2023-05-03T00:24:15.736Z,99.81
2023-05-03T00:25:15.702Z,99.99
2023-05-03T00:26:15.698Z,99.99
2023-05-03T00:27:15.694Z,99.99
2023-05-03T00:28:15.680Z,99.99
2023-05-03T00:29:15.696Z,99.91
2023-05-03T00:30:15.672Z,99.99
2023-05-03T00:31:15.656Z,99.91
2023-05-03T00:32:16.646Z,99.60
2023-05-03T00:33:15.647Z,99.50
2023-05-03T00:34:15.663Z,99.08
2023-05-03T00:35:15.634Z,99.29
2023-05-03T00:36:15.653Z,99.44
2023-05-03T00:37:15.617Z,99.50
2023-05-03T00:38:15.631Z,99.18
2023-05-03T00:39:15.622Z,99.18
2023-05-03T00:40:15.581Z,99.29
2023-05-03T00:41:15.584Z,99.13
2023-05-03T00:42:15.571Z,99.54
2023-05-03T00:43:15.571Z,99.54
2023-05-03T00:44:15.586Z,99.23
2023-05-03T00:45:15.557Z,99.13
2023-05-03T00:46:17.118Z,99.13
2023-05-03T00:47:16.681Z,99.23
2023-05-03T00:48:15.533Z,99.44
2023-05-03T00:49:15.550Z,99.13
2023-05-03T00:50:15.518Z,99.44
2023-05-03T00:51:15.505Z,99.44
2023-05-03T00:52:15.499Z,99.75
2023-05-03T00:53:15.485Z,99.99
2023-05-03T00:54:15.509Z,99.96
2023-05-03T00:55:15.472Z,99.85
2023-05-03T00:56:15.476Z,99.65
2023-05-03T00:57:15.459Z,99.54
2023-05-03T00:58:15.457Z,99.59
2023-05-03T00:59:15.489Z,99.69
2023-05-03T01:00:15.442Z,99.48
2023-05-03T01:01:15.485Z,99.69
2023-05-03T01:02:15.430Z,99.95
2023-05-03T01:03:15.462Z,99.99
2023-05-03T01:04:15.440Z,99.90
2023-05-03T01:05:15.408Z,99.69
2023-05-03T01:06:15.475Z,99.80
2023-05-03T01:07:15.402Z,99.69
2023-05-03T01:08:15.381Z,99.74
2023-05-03T01:09:15.405Z,99.99
2023-05-03T01:10:15.373Z,99.99
2023-05-03T01:11:15.383Z,99.99
2023-05-03T01:12:15.359Z,99.99
2023-05-03T01:13:15.348Z,99.99
2023-05-03T01:14:15.333Z,99.99
2023-05-03T01:15:15.329Z,99.99
2023-05-03T01:16:15.387Z,99.99
2023-05-03T01:17:15.324Z,99.99
2023-05-03T01:18:15.335Z,99.99
2023-05-03T01:19:15.291Z,99.99
2023-05-03T01:20:15.315Z,99.99
2023-05-03T01:21:15.316Z,99.99
2023-05-03T01:22:15.275Z,99.99
2023-05-03T01:23:15.271Z,99.99
2023-05-03T01:24:15.269Z,99.99
2023-05-03T01:25:15.287Z,99.99
2023-05-03T01:26:15.256Z,99.74
2023-05-03T01:27:15.228Z,99.79
2023-05-03T01:28:15.227Z,99.99
2023-05-03T01:29:15.218Z,99.99
2023-05-03T01:30:15.244Z,99.99
2023-05-03T01:31:15.261Z,99.99
2023-05-03T01:32:15.193Z,99.99
2023-05-03T01:33:15.183Z,99.99
2023-05-03T01:34:15.176Z,99.99
2023-05-03T01:35:15.195Z,99.99
2023-05-03T01:36:15.165Z,99.99
2023-05-03T01:37:15.161Z,99.99
2023-05-03T01:38:15.161Z,99.99
2023-05-03T01:39:15.137Z,99.99
2023-05-03T01:40:15.161Z,99.99
2023-05-03T01:41:15.125Z,99.99
2023-05-03T01:42:15.120Z,99.99
2023-05-03T01:43:15.109Z,99.99
2023-05-03T01:44:15.132Z,99.99
2023-05-03T01:45:15.467Z,99.99
2023-05-03T01:46:15.116Z,99.99
2023-05-03T01:47:15.118Z,99.99
2023-05-03T01:48:15.082Z,99.99
2023-05-03T01:49:15.098Z,99.99
2023-05-03T01:50:15.061Z,99.99
2023-05-03T01:51:15.054Z,99.99
2023-05-03T01:52:15.043Z,99.99
2023-05-03T01:53:15.055Z,99.99
2023-05-03T01:54:15.061Z,99.99
2023-05-03T01:55:15.024Z,99.99
2023-05-03T01:56:15.011Z,99.99
2023-05-03T01:57:15.006Z,99.99
2023-05-03T01:58:15.022Z,99.99
2023-05-03T01:59:15.019Z,99.99
2023-05-03T02:00:14.992Z,99.99
2023-05-03T02:01:15.004Z,99.99
2023-05-03T02:02:14.977Z,99.99
2023-05-03T02:03:14.977Z,99.99
2023-05-03T02:04:15.998Z,99.99
2023-05-03T02:05:14.944Z,99.99
2023-05-03T02:06:14.956Z,99.99
2023-05-03T02:07:14.935Z,99.99
2023-05-03T02:08:14.954Z,99.99
2023-05-03T02:09:14.926Z,99.99
2023-05-03T02:10:15.087Z,99.99
2023-05-03T02:11:14.890Z,99.99
2023-05-03T02:12:14.887Z,99.99
2023-05-03T02:13:14.914Z,99.99
2023-05-03T02:14:14.882Z,99.99
2023-05-03T02:15:14.878Z,99.99
2023-05-03T02:16:14.875Z,99.99
2023-05-03T02:17:14.856Z,99.99
2023-05-03T02:18:14.859Z,99.99
2023-05-03T02:19:15.837Z,99.99
2023-05-03T02:20:14.826Z,99.99
2023-05-03T02:21:14.823Z,99.99
2023-05-03T02:22:14.841Z,99.99
2023-05-03T02:23:14.861Z,99.99
2023-05-03T02:24:14.808Z,99.99
2023-05-03T02:25:14.830Z,99.99
2023-05-03T02:26:14.781Z,99.99
2023-05-03T02:27:14.808Z,99.99
2023-05-03T02:28:14.778Z,99.99
2023-05-03T02:29:14.778Z,99.99
2023-05-03T02:30:14.752Z,99.99
2023-05-03T02:31:14.765Z,99.99
2023-05-03T02:32:14.769Z,99.99
2023-05-03T02:33:14.738Z,99.99
2023-05-03T02:34:14.731Z,99.99
2023-05-03T02:35:14.731Z,99.99
2023-05-03T02:36:14.717Z,99.99
2023-05-03T02:37:14.739Z,99.99
2023-05-03T02:38:14.695Z,99.99
2023-05-03T02:39:14.692Z,99.99
2023-05-03T02:40:14.685Z,99.99
2023-05-03T02:41:14.669Z,99.99
2023-05-03T02:42:14.690Z,99.99
2023-05-03T02:43:14.675Z,99.99
2023-05-03T02:44:14.655Z,99.99
2023-05-03T02:45:14.647Z,99.99
2023-05-03T02:46:14.711Z,99.99
2023-05-03T02:47:14.664Z,99.99
2023-05-03T02:48:14.637Z,99.99
2023-05-03T02:49:14.616Z,99.99
2023-05-03T02:50:14.612Z,99.99
2023-05-03T02:51:14.675Z,99.99
2023-05-03T02:52:14.618Z,99.99
2023-05-03T02:53:14.611Z,99.99
2023-05-03T02:54:14.580Z,99.99
2023-05-03T02:55:14.600Z,99.99
2023-05-03T02:56:14.598Z,99.99
2023-05-03T02:57:14.578Z,99.99
2023-05-03T02:58:14.545Z,99.99
2023-05-03T02:59:14.636Z,99.99
2023-05-03T03:00:14.546Z,99.99
2023-05-03T03:01:14.619Z,99.99
2023-05-03T03:02:14.521Z,99.99
2023-05-03T03:03:14.628Z,99.99
2023-05-03T03:04:14.503Z,99.99
2023-05-03T03:05:14.502Z,99.99
2023-05-03T03:06:14.529Z,99.99
2023-05-03T03:07:14.475Z,99.99
2023-05-03T03:08:14.469Z,99.99
2023-05-03T03:09:14.454Z,99.99
2023-05-03T03:10:14.478Z,99.99
2023-05-03T03:11:14.465Z,99.99
2023-05-03T03:12:14.436Z,99.99
2023-05-03T03:13:14.427Z,99.99
2023-05-03T03:14:14.421Z,99.99
2023-05-03T03:15:14.443Z,99.99
2023-05-03T03:16:14.451Z,99.99
2023-05-03T03:17:14.402Z,99.99
2023-05-03T03:18:14.390Z,99.99
2023-05-03T03:19:14.393Z,99.99
2023-05-03T03:20:14.397Z,99.99
2023-05-03T03:21:14.372Z,99.99
2023-05-03T03:22:14.365Z,99.99
2023-05-03T03:23:14.352Z,99.99
2023-05-03T03:24:14.371Z,99.99
2023-05-03T03:25:14.369Z,99.99
2023-05-03T03:26:14.333Z,99.99
2023-05-03T03:27:14.321Z,99.99
2023-05-03T03:28:14.313Z,99.99
2023-05-03T03:29:14.333Z,99.99
2023-05-03T03:30:14.324Z,99.99
2023-05-03T03:31:14.310Z,99.99
2023-05-03T03:32:14.286Z,99.99
2023-05-03T03:33:14.314Z,99.99
2023-05-03T03:34:14.290Z,99.99
2023-05-03T03:35:14.270Z,99.99
2023-05-03T03:36:14.253Z,99.99
2023-05-03T03:37:14.248Z,99.99
2023-05-03T03:38:14.263Z,99.99
2023-05-03T03:39:14.256Z,99.99
2023-05-03T03:40:14.219Z,99.99
2023-05-03T03:41:14.230Z,99.99
2023-05-03T03:42:14.208Z,99.99
2023-05-03T03:43:14.254Z,99.99
2023-05-03T03:44:14.205Z,99.99
2023-05-03T03:45:14.189Z,99.99
2023-05-03T03:46:14.180Z,99.99
2023-05-03T03:47:14.377Z,99.99
2023-05-03T03:48:14.218Z,99.99
2023-05-03T03:49:14.153Z,99.99
2023-05-03T03:50:14.156Z,99.99
2023-05-03T03:51:14.141Z,99.99
2023-05-03T03:52:14.142Z,99.99
2023-05-03T03:53:14.148Z,99.99
2023-05-03T03:54:14.117Z,99.99
2023-05-03T03:55:14.105Z,99.99
2023-05-03T03:56:14.102Z,99.99
2023-05-03T03:57:14.119Z,99.99
2023-05-03T03:58:14.116Z,99.99
2023-05-03T03:59:14.087Z,99.99
2023-05-03T04:00:14.079Z,99.99
2023-05-03T04:01:14.069Z,99.99
2023-05-03T04:02:14.120Z,99.99
2023-05-03T04:03:14.137Z,99.99
2023-05-03T04:04:14.218Z,99.99
2023-05-03T04:05:14.038Z,99.99
2023-05-03T04:06:14.101Z,99.99
2023-05-03T04:07:14.052Z,99.99
2023-05-03T04:08:14.018Z,99.99
2023-05-03T04:09:14.003Z,99.99
2023-05-03T04:10:13.997Z,99.99
2023-05-03T04:11:14.013Z,99.99
2023-05-03T04:12:14.007Z,99.99
2023-05-03T04:13:13.979Z,99.99
2023-05-03T04:14:13.967Z,99.99
2023-05-03T04:15:13.984Z,99.99
2023-05-03T04:16:13.980Z,99.99
2023-05-03T04:17:14.100Z,99.99
2023-05-03T04:18:13.965Z,99.99
2023-05-03T04:19:13.948Z,99.99
2023-05-03T04:20:14.040Z,99.99
2023-05-03T04:21:13.937Z,99.99
2023-05-03T04:22:13.908Z,99.99
2023-05-03T04:23:13.897Z,99.99
2023-05-03T04:24:13.892Z,99.99
2023-05-03T04:25:13.931Z,99.99
2023-05-03T04:26:27.489Z,99.99
2023-05-03T04:27:15.877Z,99.99
2023-05-03T04:28:13.883Z,99.99
2023-05-03T04:29:13.855Z,99.99
2023-05-03T04:30:13.862Z,99.99
2023-05-03T04:31:13.895Z,99.99
2023-05-03T04:32:13.828Z,99.99
2023-05-03T04:33:13.954Z,99.99
2023-05-03T04:34:13.813Z,99.99
2023-05-03T04:35:13.831Z,99.99
2023-05-03T04:36:13.798Z,99.99
2023-05-03T04:37:13.794Z,99.99
2023-05-03T04:38:13.781Z,99.91
2023-05-03T04:39:13.774Z,99.99
2023-05-03T04:40:13.792Z,99.50
2023-05-03T04:41:15.947Z,99.60
2023-05-03T04:42:13.756Z,99.50
2023-05-03T04:43:13.755Z,99.60
2023-05-03T04:44:13.753Z,99.50
2023-05-03T04:45:13.764Z,99.66
2023-05-03T04:46:13.765Z,98.93
2023-05-03T04:47:13.712Z,99.14
2023-05-03T04:48:13.908Z,99.45
2023-05-03T04:49:13.700Z,98.93
2023-05-03T04:50:13.718Z,99.24
2023-05-03T04:51:14.686Z,98.26
2023-05-03T04:52:13.684Z,98.36
2023-05-03T04:53:13.675Z,98.11
2023-05-03T04:54:13.698Z,98.48
2023-05-03T04:55:13.677Z,98.75
2023-05-03T04:56:13.640Z,97.40
2023-05-03T04:57:13.643Z,97.45
2023-05-03T04:58:13.635Z,96.48
2023-05-03T04:59:13.636Z,96.12
2023-05-03T05:00:13.654Z,95.50
2023-05-03T05:01:13.658Z,95.19
2023-05-03T05:02:13.603Z,93.95
2023-05-03T05:03:13.656Z,93.74
2023-05-03T05:04:13.604Z,94.15
2023-05-03T05:05:14.601Z,93.99
2023-05-03T05:06:13.631Z,95.34
2023-05-03T05:07:13.556Z,95.34
2023-05-03T05:08:13.574Z,95.59
2023-05-03T05:09:13.572Z,94.92
2023-05-03T05:10:13.528Z,95.13
2023-05-03T05:11:13.523Z,96.06
2023-05-03T05:12:13.532Z,96.00
2023-05-03T05:13:13.540Z,95.13
2023-05-03T05:14:13.524Z,94.92
2023-05-03T05:15:13.494Z,95.07
2023-05-03T05:16:13.485Z,95.38
2023-05-03T05:17:13.498Z,95.90
2023-05-03T05:18:13.516Z,95.38
2023-05-03T05:19:13.482Z,95.34
2023-05-03T05:20:13.487Z,95.34
2023-05-03T05:21:13.453Z,95.86
2023-05-03T05:22:13.440Z,94.57
2023-05-03T05:23:13.428Z,94.53
2023-05-03T05:24:13.450Z,93.75
2023-05-03T05:25:13.455Z,93.13
2023-05-03T05:26:13.406Z,92.26
2023-05-03T05:27:13.395Z,91.22
2023-05-03T05:28:13.411Z,91.74
2023-05-03T05:29:13.404Z,91.43
2023-05-03T05:30:13.375Z,90.66
2023-05-03T05:31:13.509Z,90.20
2023-05-03T05:32:13.361Z,91.16
2023-05-03T05:33:13.433Z,90.56
2023-05-03T05:34:13.409Z,87.87
2023-05-03T05:35:13.326Z,86.86
2023-05-03T05:36:13.325Z,86.59
2023-05-03T05:37:13.329Z,86.76
2023-05-03T05:38:13.340Z,86.41
2023-05-03T05:39:13.306Z,86.05
2023-05-03T05:40:13.293Z,84.27
2023-05-03T05:41:13.301Z,84.80
2023-05-03T05:42:13.278Z,82.56
2023-05-03T05:43:13.296Z,80.91
2023-05-03T05:44:13.293Z,79.49
2023-05-03T05:45:13.265Z,76.92
2023-05-03T05:46:13.245Z,74.84
2023-05-03T05:47:13.281Z,73.91
2023-05-03T05:48:13.329Z,73.16
2023-05-03T05:49:13.219Z,71.83
2023-05-03T05:50:18.249Z,70.47
2023-05-03T05:51:15.230Z,70.37
2023-05-03T05:52:13.255Z,71.05
2023-05-03T05:53:13.208Z,68.94
2023-05-03T05:54:13.188Z,68.91
2023-05-03T05:55:13.175Z,67.35
2023-05-03T05:56:13.177Z,65.78
2023-05-03T05:57:13.191Z,65.52
2023-05-03T05:58:13.160Z,64.11
2023-05-03T05:59:13.157Z,64.25
2023-05-03T06:00:13.207Z,62.56
2023-05-03T06:01:13.162Z,61.49
2023-05-03T06:02:13.177Z,60.07
2023-05-03T06:03:13.186Z,61.49
2023-05-03T06:04:13.114Z,59.55
2023-05-03T06:05:13.160Z,58.92
2023-05-03T06:06:13.149Z,57.67
2023-05-03T06:07:13.084Z,56.43
2023-05-03T06:08:13.074Z,57.34
2023-05-03T06:09:24.261Z,57.09
2023-05-03T06:10:15.118Z,55.54
2023-05-03T06:11:13.098Z,56.32
2023-05-03T06:12:13.052Z,56.48
2023-05-03T06:13:13.044Z,56.27
2023-05-03T06:14:13.032Z,56.05
2023-05-03T06:15:13.036Z,55.21
2023-05-03T06:16:13.048Z,55.74
2023-05-03T06:17:13.132Z,56.43
2023-05-03T06:18:13.161Z,54.81
2023-05-03T06:19:12.996Z,53.75
2023-05-03T06:20:13.102Z,54.08
2023-05-03T06:21:13.000Z,54.05
2023-05-03T06:22:12.977Z,53.27
2023-05-03T06:23:12.964Z,53.75
2023-05-03T06:24:13.032Z,52.54
2023-05-03T06:25:15.098Z,53.83
2023-05-03T06:26:12.948Z,52.19
2023-05-03T06:27:12.933Z,52.37
2023-05-03T06:28:12.929Z,51.71
2023-05-03T06:29:12.924Z,52.14
2023-05-03T06:30:12.959Z,52.37
2023-05-03T06:31:12.941Z,52.77
2023-05-03T06:32:12.921Z,53.07
2023-05-03T06:33:12.962Z,52.64
2023-05-03T06:34:12.887Z,52.44
2023-05-03T06:35:12.907Z,52.80
2023-05-03T06:36:12.873Z,56.15
2023-05-03T06:37:12.883Z,54.53
2023-05-03T06:38:12.862Z,56.88
2023-05-03T06:39:12.867Z,58.02
2023-05-03T06:40:12.866Z,57.78
2023-05-03T06:41:12.841Z,58.84
2023-05-03T06:42:12.841Z,59.19
2023-05-03T06:43:12.842Z,59.27
2023-05-03T06:44:12.817Z,58.12
2023-05-03T06:45:12.849Z,57.49
2023-05-03T06:46:12.866Z,58.81
2023-05-03T06:47:12.814Z,59.48
2023-05-03T06:48:12.929Z,61.00
2023-05-03T06:49:12.790Z,59.03
2023-05-03T06:50:12.816Z,62.23
2023-05-03T06:51:12.767Z,63.71
2023-05-03T06:52:12.769Z,64.39
2023-05-03T06:53:12.755Z,62.10
2023-05-03T06:54:12.772Z,61.49
2023-05-03T06:55:12.825Z,59.91
2023-05-03T06:56:12.737Z,60.59
2023-05-03T06:57:12.725Z,60.89
2023-05-03T06:58:12.721Z,59.55
2023-05-03T06:59:12.751Z,59.22
2023-05-03T07:00:12.700Z,57.27
2023-05-03T07:01:12.713Z,58.38
2023-05-03T07:02:12.713Z,57.85
2023-05-03T07:03:12.762Z,55.74
2023-05-03T07:04:12.780Z,56.05
2023-05-03T07:05:12.676Z,55.85
2023-05-03T07:06:12.692Z,57.09
2023-05-03T07:07:12.716Z,57.29
2023-05-03T07:08:12.652Z,56.98
2023-05-03T07:09:12.668Z,54.10
2023-05-03T07:10:12.665Z,52.56
2023-05-03T07:11:12.637Z,52.42
2023-05-03T07:12:12.627Z,54.71
2023-05-03T07:13:12.639Z,54.23
2023-05-03T07:14:12.653Z,56.48
2023-05-03T07:15:12.607Z,57.54
2023-05-03T07:16:12.629Z,55.93
2023-05-03T07:17:12.615Z,56.86
2023-05-03T07:18:12.690Z,55.42
2023-05-03T07:19:12.676Z,54.31
2023-05-03T07:20:12.557Z,54.25
2023-05-03T07:21:12.554Z,56.10
2023-05-03T07:22:12.551Z,54.13
2023-05-03T07:23:12.645Z,57.75
2023-05-03T07:24:12.564Z,55.44
2023-05-03T07:25:12.651Z,56.02
2023-05-03T07:26:12.537Z,57.65
2023-05-03T07:27:12.538Z,57.11
2023-05-03T07:28:12.537Z,56.02
2023-05-03T07:29:12.512Z,54.28
2023-05-03T07:30:12.516Z,54.51
2023-05-03T07:31:12.544Z,54.89
2023-05-03T07:32:12.535Z,54.99
2023-05-03T07:33:12.713Z,54.49
2023-05-03T07:34:12.467Z,57.52
2023-05-03T07:35:12.455Z,57.21
2023-05-03T07:36:12.457Z,56.33
2023-05-03T07:37:12.480Z,56.08
2023-05-03T07:38:12.445Z,56.61
2023-05-03T07:39:12.436Z,54.05
2023-05-03T07:40:12.422Z,55.19
2023-05-03T07:41:12.435Z,57.83
2023-05-03T07:42:12.459Z,54.71
2023-05-03T07:43:12.418Z,55.02
2023-05-03T07:44:12.479Z,55.02
2023-05-03T07:45:12.395Z,56.21
2023-05-03T07:46:12.509Z,55.27
2023-05-03T07:47:12.498Z,55.95
2023-05-03T07:48:12.406Z,56.73
2023-05-03T07:49:12.486Z,54.89
2023-05-03T07:50:12.361Z,56.10
2023-05-03T07:51:12.370Z,52.79
2023-05-03T07:52:12.421Z,54.91
2023-05-03T07:53:12.325Z,52.06
2023-05-03T07:54:12.334Z,51.20
2023-05-03T07:55:12.451Z,53.98
2023-05-03T07:56:12.395Z,52.54
2023-05-03T07:57:12.323Z,52.51
2023-05-03T07:58:12.401Z,54.41
2023-05-03T07:59:12.299Z,52.72
2023-05-03T08:00:12.271Z,52.79
2023-05-03T08:01:12.300Z,52.23
2023-05-03T08:02:12.429Z,54.53
2023-05-03T08:03:12.523Z,54.31
2023-05-03T08:04:12.533Z,54.33
2023-05-03T08:05:12.327Z,52.13
2023-05-03T08:06:12.393Z,50.64
2023-05-03T08:07:12.219Z,50.70
2023-05-03T08:08:12.318Z,52.61
2023-05-03T08:09:12.218Z,52.54
2023-05-03T08:10:12.346Z,53.52
2023-05-03T08:11:12.199Z,53.63
2023-05-03T08:12:12.190Z,50.24
2023-05-03T08:13:12.191Z,52.48
2023-05-03T08:14:12.170Z,52.92
2023-05-03T08:15:12.200Z,54.79
2023-05-03T08:16:12.171Z,54.59
2023-05-03T08:17:12.156Z,53.58
2023-05-03T08:18:12.152Z,54.76
2023-05-03T08:19:12.138Z,54.03
2023-05-03T08:20:12.179Z,54.36
2023-05-03T08:21:12.188Z,59.07
2023-05-03T08:22:12.113Z,53.91
2023-05-03T08:23:12.239Z,55.07
2023-05-03T08:24:12.832Z,56.56
2023-05-03T08:25:12.157Z,54.11
2023-05-03T08:26:12.091Z,54.79
2023-05-03T08:27:12.078Z,50.49
2023-05-03T08:28:12.081Z,53.67
2023-05-03T08:29:12.087Z,54.18
2023-05-03T08:30:12.091Z,55.12
2023-05-03T08:31:12.094Z,54.13
2023-05-03T08:32:12.044Z,55.50
2023-05-03T08:33:12.092Z,58.14
2023-05-03T08:34:13.069Z,55.45
2023-05-03T08:35:12.068Z,52.39
2023-05-03T08:36:12.020Z,55.50
2023-05-03T08:37:12.013Z,51.60
2023-05-03T08:38:12.001Z,49.66
2023-05-03T08:39:12.041Z,50.04
2023-05-03T08:40:11.982Z,49.94
2023-05-03T08:41:11.980Z,52.23
2023-05-03T08:42:12.004Z,54.00
2023-05-03T08:43:11.963Z,53.96
2023-05-03T08:44:11.980Z,56.77
2023-05-03T08:45:11.968Z,59.27
2023-05-03T08:46:11.999Z,55.10
2023-05-03T08:47:11.929Z,56.92
2023-05-03T08:48:11.973Z,52.74
2023-05-03T08:49:11.939Z,54.89
2023-05-03T08:50:11.940Z,58.18
2023-05-03T08:51:11.899Z,55.80
2023-05-03T08:52:11.894Z,56.82
2023-05-03T08:53:11.905Z,57.84
2023-05-03T08:54:11.902Z,58.78
2023-05-03T08:55:11.895Z,56.18
2023-05-03T08:56:11.859Z,53.25
2023-05-03T08:57:11.857Z,52.64
2023-05-03T08:58:11.916Z,53.07
2023-05-03T08:59:11.866Z,54.00
2023-05-03T09:00:11.828Z,55.11
2023-05-03T09:01:11.853Z,54.00
2023-05-03T09:02:11.873Z,52.06
2023-05-03T09:03:11.985Z,51.03
2023-05-03T09:04:11.921Z,52.14
2023-05-03T09:05:11.800Z,50.07
2023-05-03T09:06:11.804Z,54.03
2023-05-03T09:07:11.830Z,52.74
2023-05-03T09:08:11.828Z,54.61
2023-05-03T09:09:11.761Z,55.37
2023-05-03T09:10:11.760Z,57.23
2023-05-03T09:11:11.799Z,57.74
2023-05-03T09:12:11.741Z,58.33
2023-05-03T09:13:11.784Z,57.46
2023-05-03T09:14:11.733Z,58.54
2023-05-03T09:15:11.756Z,59.62
2023-05-03T09:16:11.868Z,59.39
2023-05-03T09:17:11.711Z,58.34
2023-05-03T09:18:11.926Z,58.31
2023-05-03T09:19:11.906Z,57.43
2023-05-03T09:20:11.688Z,56.70
2023-05-03T09:21:11.671Z,58.11
2023-05-03T09:22:11.667Z,57.03
2023-05-03T09:23:11.713Z,60.07
2023-05-03T09:24:11.652Z,59.75
2023-05-03T09:25:11.669Z,58.12
2023-05-03T09:26:11.653Z,58.09
2023-05-03T09:27:11.623Z,60.10
2023-05-03T09:28:11.647Z,59.69
2023-05-03T09:29:11.604Z,61.72
2023-05-03T09:30:12.614Z,57.46
2023-05-03T09:31:13.343Z,59.39
2023-05-03T09:32:12.629Z,57.76
2023-05-03T09:33:11.695Z,58.70
2023-05-03T09:34:11.581Z,59.62
2023-05-03T09:35:11.572Z,59.64
2023-05-03T09:36:11.610Z,57.95
2023-05-03T09:37:11.551Z,58.40
2023-05-03T09:38:11.626Z,57.90
2023-05-03T09:39:11.611Z,58.89
2023-05-03T09:40:11.533Z,58.42
2023-05-03T09:41:11.526Z,57.66
2023-05-03T09:42:11.513Z,56.31
2023-05-03T09:43:11.627Z,59.36
2023-05-03T09:44:11.501Z,58.75
2023-05-03T09:45:11.490Z,56.79
2023-05-03T09:46:11.533Z,56.79
2023-05-03T09:47:11.482Z,58.75
2023-05-03T09:48:11.566Z,62.94
2023-05-03T09:49:11.488Z,59.77
2023-05-03T09:50:11.449Z,60.38
2023-05-03T09:51:11.563Z,58.73
2023-05-03T09:52:11.442Z,61.47
2023-05-03T09:53:11.442Z,59.01
2023-05-03T09:54:11.467Z,59.95
2023-05-03T09:55:11.425Z,60.66
2023-05-03T09:56:11.411Z,60.76
2023-05-03T09:57:11.395Z,59.88
2023-05-03T09:58:11.407Z,58.76
2023-05-03T09:59:11.478Z,59.67
2023-05-03T10:00:11.524Z,59.09
2023-05-03T10:01:11.407Z,59.30
2023-05-03T10:02:11.371Z,61.66
2023-05-03T10:03:11.358Z,60.80
2023-05-03T10:04:11.449Z,66.23
2023-05-03T10:05:11.355Z,61.11
2023-05-03T10:06:11.366Z,61.72
2023-05-03T10:07:12.497Z,64.23
2023-05-03T10:08:12.317Z,63.70
2023-05-03T10:09:11.329Z,62.17
2023-05-03T10:10:11.304Z,62.58
2023-05-03T10:11:11.290Z,62.04
2023-05-03T10:12:11.280Z,59.80
2023-05-03T10:13:12.386Z,62.32
2023-05-03T10:14:12.286Z,62.11
2023-05-03T10:15:11.327Z,58.65
2023-05-03T10:16:11.288Z,58.83
2023-05-03T10:17:11.355Z,61.34
2023-05-03T10:18:11.263Z,61.14
2023-05-03T10:19:12.132Z,56.39
2023-05-03T10:20:11.211Z,60.25
2023-05-03T10:21:11.211Z,61.07
2023-05-03T10:22:11.202Z,60.89
2023-05-03T10:23:11.214Z,58.09
2023-05-03T10:24:11.181Z,57.76
2023-05-03T10:25:11.802Z,60.83
2023-05-03T10:26:11.160Z,57.79
2023-05-03T10:27:11.156Z,60.43
2023-05-03T10:28:11.179Z,58.60
2023-05-03T10:29:11.146Z,59.01
2023-05-03T10:30:11.144Z,56.09
2023-05-03T10:31:11.177Z,57.92
2023-05-03T10:32:11.118Z,57.10
2023-05-03T10:33:11.172Z,58.09
2023-05-03T10:34:11.105Z,57.76
2023-05-03T10:35:11.101Z,57.86
2023-05-03T10:36:11.098Z,59.72
2023-05-03T10:37:11.113Z,60.69
2023-05-03T10:38:11.094Z,60.18
2023-05-03T10:39:11.054Z,59.06
2023-05-03T10:40:11.052Z,61.51
2023-05-03T10:41:11.035Z,60.97
2023-05-03T10:42:11.031Z,58.78
2023-05-03T10:43:11.027Z,57.25
2023-05-03T10:44:11.048Z,57.40
2023-05-03T10:45:11.007Z,56.87
2023-05-03T10:46:11.011Z,57.55
2023-05-03T10:47:10.981Z,57.15
2023-05-03T10:48:11.104Z,56.34
2023-05-03T10:49:10.966Z,59.27
2023-05-03T10:50:10.959Z,59.61
2023-05-03T10:51:10.958Z,60.31
2023-05-03T10:52:10.942Z,57.84
2023-05-03T10:53:10.962Z,60.88
2023-05-03T10:54:10.934Z,58.45
2023-05-03T10:55:10.917Z,57.03
2023-05-03T10:56:11.071Z,55.40
2023-05-03T10:57:10.902Z,55.98
2023-05-03T10:58:10.932Z,58.18
2023-05-03T10:59:10.888Z,57.91
2023-05-03T11:00:10.879Z,58.42
2023-05-03T11:01:10.919Z,58.34
2023-05-03T11:02:10.866Z,58.37
2023-05-03T11:03:10.919Z,54.90
2023-05-03T11:04:10.940Z,57.12
2023-05-03T11:05:11.107Z,56.21
2023-05-03T11:06:10.870Z,55.50
2023-05-03T11:07:10.825Z,56.16
2023-05-03T11:08:10.844Z,54.33
2023-05-03T11:09:10.810Z,56.13
2023-05-03T11:10:10.807Z,52.56
2023-05-03T11:11:10.801Z,53.05
2023-05-03T11:12:10.787Z,53.90
2023-05-03T11:13:10.826Z,54.41
2023-05-03T11:14:10.781Z,56.00
2023-05-03T11:15:10.773Z,57.95
2023-05-03T11:16:10.820Z,54.51
2023-05-03T11:17:10.765Z,54.61
2023-05-03T11:18:10.808Z,53.88
2023-05-03T11:19:10.763Z,55.82
2023-05-03T11:20:10.731Z,56.63
2023-05-03T11:21:10.727Z,57.24
2023-05-03T11:22:10.807Z,56.15
2023-05-03T11:23:10.708Z,57.83
2023-05-03T11:24:10.733Z,59.42
2023-05-03T11:25:10.743Z,59.32
2023-05-03T11:26:10.680Z,54.49
2023-05-03T11:27:10.705Z,55.27
2023-05-03T11:28:10.680Z,55.57
2023-05-03T11:29:10.724Z,57.62
2023-05-03T11:30:10.648Z,54.28
2023-05-03T11:31:10.636Z,52.84
2023-05-03T11:32:10.843Z,56.08
2023-05-03T11:33:10.642Z,58.05
2023-05-03T11:34:10.645Z,54.49
2023-05-03T11:35:10.743Z,53.88
2023-05-03T11:36:10.602Z,56.84
2023-05-03T11:37:10.591Z,56.84
2023-05-03T11:38:10.596Z,54.23
2023-05-03T11:39:10.642Z,51.60
2023-05-03T11:40:10.579Z,53.22
2023-05-03T11:41:10.570Z,55.55
2023-05-03T11:42:10.575Z,57.09
2023-05-03T11:43:10.591Z,54.08
2023-05-03T11:44:16.896Z,54.28
2023-05-03T11:45:12.575Z,54.49
2023-05-03T11:46:10.652Z,56.10
2023-05-03T11:47:10.626Z,55.47
2023-05-03T11:48:10.550Z,53.93
2023-05-03T11:49:10.559Z,52.31
2023-05-03T11:50:11.025Z,51.50
2023-05-03T11:51:10.512Z,51.70
2023-05-03T11:52:10.541Z,55.42
2023-05-03T11:53:10.492Z,53.12
2023-05-03T11:54:23.983Z,55.98
2023-05-03T11:55:12.607Z,54.16
2023-05-03T11:56:11.482Z,58.18
2023-05-03T11:57:10.438Z,55.32
2023-05-03T11:58:10.430Z,54.56
2023-05-03T11:59:10.449Z,54.79
2023-05-03T12:00:10.502Z,57.83
2023-05-03T12:01:10.465Z,54.46
2023-05-03T12:02:10.561Z,55.47
2023-05-03T12:03:10.516Z,55.30
2023-05-03T12:04:10.654Z,56.71
2023-05-03T12:05:11.142Z,52.74
2023-05-03T12:06:11.349Z,55.24
2023-05-03T12:07:10.862Z,54.74
2023-05-03T12:08:11.912Z,53.14
2023-05-03T12:09:10.548Z,54.21
2023-05-03T12:10:16.965Z,54.11
2023-05-03T12:11:14.110Z,52.48
2023-05-03T12:12:11.645Z,56.73
2023-05-03T12:13:10.757Z,54.08
2023-05-03T12:14:10.782Z,55.29
2023-05-03T12:15:11.842Z,51.55
2023-05-03T12:16:13.667Z,51.15
2023-05-03T12:17:11.637Z,49.91
2023-05-03T12:18:11.621Z,49.81
2023-05-03T12:19:10.524Z,54.86
2023-05-03T12:20:42.044Z,55.60
2023-05-03T12:22:24.988Z,52.36
2023-05-03T12:23:15.428Z,52.46
2023-05-03T12:24:10.955Z,52.46
2023-05-03T12:25:12.880Z,50.84
2023-05-03T12:26:10.369Z,50.62
2023-05-03T12:27:10.267Z,51.83
2023-05-03T12:30:11.480Z,52.59
2023-05-03T12:31:12.908Z,52.67
2023-05-03T12:33:11.269Z,50.12
2023-05-03T12:34:31.912Z,49.21
2023-05-03T12:36:14.437Z,48.28
2023-05-03T12:37:11.496Z,49.29
2023-05-03T12:38:11.322Z,51.45
2023-05-03T12:39:10.592Z,50.37
2023-05-03T12:40:29.640Z,50.35
2023-05-03T12:41:14.596Z,51.66
2023-05-03T12:42:10.201Z,52.87
2023-05-03T12:43:10.213Z,50.87
2023-05-03T12:44:10.960Z,51.86
2023-05-03T12:45:12.532Z,49.84
2023-05-03T12:47:11.323Z,49.31
2023-05-03T12:48:10.224Z,49.29
2023-05-03T12:49:14.390Z,49.59
2023-05-03T12:50:12.368Z,53.47
2023-05-03T12:52:36.486Z,52.44
2023-05-03T12:53:14.999Z,56.15
2023-05-03T12:54:11.116Z,56.65
2023-05-03T12:55:11.849Z,52.82
2023-05-03T12:56:13.476Z,52.14
2023-05-03T12:57:15.050Z,52.51
2023-05-03T12:59:31.735Z,51.28
2023-05-03T13:00:14.923Z,55.21